Friday, January 19, 2018, 10:36 AM EST
Back to Local

KFOK, The Gabreski Airport

Location: East Quogue, NY, United States Lat: 40.85
Local Time: 10:36 AM EST (15:36 GMT) Lon: -72.617
Time Zone: US/Eastern Elev: 65 ft

Show me the last for .
Show Decoded

2018-01-19 09:53 METAR KFOK 191453Z 28008KT 10SM CLR M02/M08 A3008 RMK AO2 SLP185 T10171083 51004
                 =
2018-01-19 08:53 METAR KFOK 191353Z 25004KT 10SM CLR M04/M08 A3008 RMK AO2 SLP185 T10441083 =
2018-01-19 07:53 METAR KFOK 191253Z 00000KT 8SM CLR M09/M12 A3007 RMK AO2 SLP183 T10941117 =
2018-01-19 06:53 METAR KFOK 191153Z AUTO 00000KT 9SM CLR M09/M12 A3007 RMK AO2 SLP181 I1000 I6000
                 T10941117 11050 21106 51007 =
2018-01-19 05:53 METAR KFOK 191053Z AUTO 26004KT 9SM CLR M10/M12 A3006 RMK AO2 SLP180 T11001122 =
2018-01-19 04:53 METAR KFOK 190953Z AUTO 00000KT 9SM CLR M10/M12 A3006 RMK AO2 SLP180 T11001122 =
2018-01-19 03:53 METAR KFOK 190853Z AUTO 26003KT 10SM CLR M09/M13 A3004 RMK AO2 SLP174 T10941128
                 53004 =
2018-01-19 02:53 METAR KFOK 190753Z AUTO 00000KT 10SM CLR M09/M13 A3003 RMK AO2 SLP170 T10941128
                 =
2018-01-19 01:53 METAR KFOK 190653Z AUTO 00000KT 10SM CLR M08/M12 A3003 RMK AO2 SLP171 T10781122
                 =
2018-01-19 00:53 METAR KFOK 190553Z AUTO 31005KT 10SM CLR M05/M11 A3003 RMK AO2 SLP170 T10501106
                 11028 21050 58006 =
2018-01-18 23:53 METAR KFOK 190453Z AUTO 31008KT 10SM CLR M03/M10 A3005 RMK AO2 SLP176 T10331100
                 400001067 =
2018-01-18 22:53 METAR KFOK 190353Z 31010KT 10SM CLR M03/M09 A3005 RMK AO2 SLP176 T10331094 =
2018-01-18 21:53 METAR KFOK 190253Z 31006KT 10SM CLR M04/M10 A3005 RMK AO2 SLP176 T10391100 51018
                 =
2018-01-18 20:53 METAR KFOK 190153Z 31006KT 10SM CLR M03/M10 A3003 RMK AO2 SLP171 T10331100 =
2018-01-18 19:53 METAR KFOK 190053Z 31007KT 10SM CLR M03/M10 A3002 RMK AO2 SLP166 T10331100 =
2018-01-18 18:53 METAR KFOK 182353Z 32005KT 10SM CLR M03/M10 A3000 RMK AO2 SLP158 T10281100 10000
                 21028 53029 =
2018-01-18 17:53 METAR KFOK 182253Z 30007KT 10SM CLR M03/M10 A2996 RMK AO2 SLP147 T10281100 =
2018-01-18 16:53 METAR KFOK 182153Z 31007G15KT 10SM CLR M02/M11 A2994 RMK AO2 SLP140 T10171106 =
2018-01-18 15:53 METAR KFOK 182053Z 31013G19KT 10SM CLR M01/M11 A2991 RMK AO2 SLP129 T10061106
                 53001 =
2018-01-18 14:53 METAR KFOK 181953Z 32018G25KT 10SM CLR 00/M09 A2988 RMK AO2 PK WND 33026/1858
                 SLP117 T00001094 =
2018-01-18 13:53 METAR KFOK 181853Z 31018G22KT 10SM CLR M01/M11 A2988 RMK AO2 SLP120 T10061111 =
2018-01-18 12:53 METAR KFOK 181753Z 32016G23KT 10SM CLR M01/M11 A2991 RMK AO2 SLP128 T10111111
                 11011 21056 58044 =
2018-01-18 11:53 METAR KFOK 181653Z 32014G21KT 10SM CLR M02/M11 A2994 RMK AO2 SLP140 T10171111 =
2018-01-18 10:53 METAR KFOK 181553Z 32012KT 10SM CLR M02/M11 A3001 RMK AO2 SLP161 T10221111 =

Support USWX by starting your Amazon purchase here.